createdAt,value
2018-08-28T00:01:12.778Z,18.20
2018-08-28T00:03:39.711Z,18.40
2018-08-28T00:06:06.624Z,18.30
2018-08-28T00:08:33.861Z,18.40
2018-08-28T00:11:00.837Z,18.20
2018-08-28T00:13:27.750Z,18.20
2018-08-28T00:15:55.101Z,18.10
2018-08-28T00:18:22.012Z,18.10
2018-08-28T00:20:48.932Z,18.20
2018-08-28T00:23:15.893Z,18.10
2018-08-28T00:25:42.796Z,18.00
2018-08-28T00:28:09.717Z,18.00
2018-08-28T00:30:37.076Z,18.00
2018-08-28T00:33:03.996Z,18.00
2018-08-28T00:35:30.940Z,18.00
2018-08-28T00:37:57.872Z,18.20
2018-08-28T00:40:24.805Z,18.10
2018-08-28T00:42:51.742Z,18.10
2018-08-28T00:45:18.717Z,17.90
2018-08-28T00:47:45.669Z,17.90
2018-08-28T00:50:12.611Z,17.70
2018-08-28T00:52:39.604Z,17.50
2018-08-28T00:55:06.585Z,17.50
2018-08-28T00:57:33.645Z,17.50
2018-08-28T01:00:01.259Z,17.60
2018-08-28T01:02:28.240Z,17.50
2018-08-28T01:04:55.192Z,17.50
2018-08-28T01:07:22.494Z,17.40
2018-08-28T01:09:49.665Z,17.40
2018-08-28T01:12:18.113Z,17.40
2018-08-28T01:14:45.539Z,17.40
2018-08-28T01:17:12.480Z,17.30
2018-08-28T01:19:39.414Z,17.40
2018-08-28T01:22:06.774Z,17.40
2018-08-28T01:24:33.725Z,17.40
2018-08-28T01:27:00.649Z,17.40
2018-08-28T01:29:30.918Z,17.50
2018-08-28T01:31:57.970Z,17.50
2018-08-28T01:34:24.901Z,17.40
2018-08-28T01:36:52.104Z,17.40
2018-08-28T01:39:19.030Z,17.30
2018-08-28T01:41:45.961Z,17.30
2018-08-28T01:44:13.172Z,17.30
2018-08-28T01:46:40.109Z,17.20
2018-08-28T01:49:07.053Z,17.20
2018-08-28T01:51:34.010Z,17.10
2018-08-28T01:54:00.969Z,17.00
2018-08-28T01:56:27.953Z,17.00
2018-08-28T01:58:55.305Z,17.10
2018-08-28T02:01:29.228Z,17.00
2018-08-28T02:03:56.572Z,17.00
2018-08-28T02:06:23.568Z,17.00
2018-08-28T02:08:50.525Z,16.90
2018-08-28T02:11:17.816Z,17.00
2018-08-28T02:13:44.777Z,17.00
2018-08-28T02:16:11.733Z,17.00
2018-08-28T02:18:38.693Z,16.90
2018-08-28T02:35:48.415Z,16.80
2018-08-28T02:38:15.348Z,16.80
2018-08-28T02:40:42.596Z,16.70
2018-08-28T02:43:09.520Z,16.70
2018-08-28T02:45:36.468Z,16.60
2018-08-28T02:48:03.410Z,16.50
2018-08-28T02:50:30.505Z,16.40
2018-08-28T02:52:57.454Z,16.30
2018-08-28T02:55:24.778Z,16.40
2018-08-28T02:57:52.724Z,16.30
2018-08-28T03:00:19.661Z,16.30
2018-08-28T03:02:47.019Z,16.40
2018-08-28T03:05:13.888Z,16.40
2018-08-28T03:07:40.821Z,16.40
2018-08-28T03:10:07.784Z,16.50
2018-08-28T03:12:35.400Z,16.50
2018-08-28T03:15:02.341Z,16.40
2018-08-28T03:17:29.640Z,16.40
2018-08-28T03:19:56.583Z,16.40
2018-08-28T03:22:23.554Z,16.40
2018-08-28T03:24:50.811Z,16.40
2018-08-28T03:27:17.769Z,16.40
2018-08-28T03:29:44.705Z,16.40
2018-08-28T03:32:12.027Z,16.30
2018-08-28T03:34:38.980Z,16.40
2018-08-28T03:37:05.945Z,16.30
2018-08-28T03:39:33.249Z,16.30
2018-08-28T03:42:00.191Z,16.30
2018-08-28T03:44:27.132Z,16.40
2018-08-28T03:46:54.100Z,16.50
2018-08-28T03:49:21.072Z,16.60
2018-08-28T03:51:48.008Z,16.50
2018-08-28T03:54:14.966Z,16.40
2018-08-28T03:56:41.937Z,16.40
2018-08-28T03:59:09.041Z,16.50
2018-08-28T04:01:36.295Z,16.50
2018-08-28T04:04:03.204Z,16.40
2018-08-28T04:06:30.144Z,16.40
2018-08-28T04:08:57.517Z,16.40
2018-08-28T04:11:24.447Z,16.40
2018-08-28T04:13:51.379Z,16.50
2018-08-28T04:16:18.694Z,16.30
2018-08-28T04:18:45.645Z,16.40
2018-08-28T04:21:12.604Z,16.40
2018-08-28T04:23:39.571Z,16.40
2018-08-28T04:26:06.497Z,16.40
2018-08-28T04:28:33.446Z,16.50
2018-08-28T04:31:00.999Z,16.40
2018-08-28T04:33:27.851Z,16.50
2018-08-28T04:35:54.785Z,16.50
2018-08-28T04:38:22.052Z,16.50
2018-08-28T04:40:48.987Z,16.50
2018-08-28T04:43:15.912Z,16.40
2018-08-28T04:45:43.267Z,16.50
2018-08-28T04:48:10.364Z,16.50
2018-08-28T04:50:37.670Z,16.60
2018-08-28T04:53:04.669Z,16.60
2018-08-28T04:55:31.671Z,16.50
2018-08-28T04:57:58.630Z,16.60
2018-08-28T05:00:25.847Z,16.50
2018-08-28T05:02:52.779Z,16.60
2018-08-28T05:05:19.695Z,16.60
2018-08-28T05:07:47.028Z,16.50
2018-08-28T05:10:13.960Z,16.60
2018-08-28T05:12:40.919Z,16.60
2018-08-28T05:15:08.133Z,16.70
2018-08-28T05:17:35.062Z,16.60
2018-08-28T05:20:01.995Z,16.60
2018-08-28T05:22:28.930Z,16.70
2018-08-28T05:24:55.883Z,16.60
2018-08-28T05:27:22.922Z,16.70
2018-08-28T05:29:50.169Z,16.70
2018-08-28T05:32:17.128Z,16.80
2018-08-28T05:34:44.399Z,16.80
2018-08-28T05:37:11.630Z,17.00
2018-08-28T05:39:38.681Z,17.10
2018-08-28T05:42:05.613Z,17.10
2018-08-28T05:44:32.561Z,17.00
2018-08-28T05:46:59.484Z,17.10
2018-08-28T05:49:26.530Z,17.00
2018-08-28T05:51:53.853Z,17.00
2018-08-28T05:54:20.784Z,17.10
2018-08-28T05:56:47.702Z,17.00
2018-08-28T05:59:14.997Z,17.10
2018-08-28T06:01:41.921Z,17.20
2018-08-28T06:04:08.861Z,17.30
2018-08-28T06:06:35.796Z,17.50
2018-08-28T06:11:29.809Z,17.50
2018-08-28T06:13:57.077Z,17.80
2018-08-28T06:16:23.997Z,17.90
2018-08-28T06:18:50.941Z,18.10
2018-08-28T06:21:17.902Z,18.40
2018-08-28T06:23:44.834Z,18.40
2018-08-28T06:26:11.761Z,18.60
2018-08-28T06:28:39.052Z,19.00
2018-08-28T06:31:05.968Z,19.30
2018-08-28T06:33:32.900Z,19.50
2018-08-28T06:36:00.196Z,19.40
2018-08-28T06:38:27.117Z,19.70
2018-08-28T06:40:54.067Z,19.90
2018-08-28T06:43:21.026Z,20.00
2018-08-28T06:48:15.027Z,20.30
2018-08-28T06:55:36.309Z,21.20
2018-08-28T06:58:03.560Z,21.90
2018-08-28T07:00:30.536Z,22.00
2018-08-28T07:02:57.516Z,21.90
2018-08-28T07:05:24.884Z,21.90
2018-08-28T07:15:12.949Z,21.70
2018-08-28T07:52:00.192Z,22.60
2018-08-28T07:56:54.221Z,24.20
2018-08-28T08:06:43.776Z,24.70
2018-08-28T12:26:48.442Z,25.70
2018-08-28T12:29:15.648Z,25.80
2018-08-28T12:31:42.715Z,25.40
2018-08-28T12:34:09.712Z,25.50
2018-08-28T12:36:36.820Z,25.40
2018-08-28T12:39:05.058Z,25.50
2018-08-28T12:41:32.054Z,25.40
2018-08-28T12:43:59.368Z,25.20
2018-08-28T12:46:26.260Z,25.30
2018-08-28T12:48:53.324Z,25.60
2018-08-28T14:09:50.263Z,25.70
2018-08-28T14:12:17.429Z,24.90
2018-08-28T15:01:20.661Z,24.80
2018-08-28T15:03:47.624Z,24.40
2018-08-28T15:06:14.930Z,24.10
2018-08-28T15:08:41.888Z,24.00
2018-08-28T15:11:09.529Z,24.40
2018-08-28T15:13:36.528Z,24.50
2018-08-28T15:16:03.643Z,24.50
2018-08-28T15:18:30.643Z,24.10
2018-08-28T15:20:57.729Z,24.10
2018-08-28T15:23:24.734Z,23.90
2018-08-28T15:25:52.026Z,24.00
2018-08-28T15:28:19.025Z,23.90
2018-08-28T15:30:46.036Z,23.90
2018-08-28T15:33:13.403Z,24.00
2018-08-28T15:35:40.394Z,24.00
2018-08-28T15:38:07.373Z,23.90
2018-08-28T16:39:32.205Z,24.00
2018-08-28T16:41:59.090Z,22.20
2018-08-28T16:44:26.065Z,22.10
2018-08-28T16:46:53.457Z,22.10
2018-08-28T16:49:20.714Z,22.20
2018-08-28T16:51:47.728Z,22.10
2018-08-28T16:54:15.262Z,22.10
2018-08-28T16:56:42.272Z,22.10
2018-08-28T17:28:35.402Z,22.10
2018-08-28T17:33:29.437Z,21.40
2018-08-28T17:38:23.797Z,21.40
2018-08-28T17:45:44.947Z,21.10
2018-08-28T17:48:12.016Z,20.70
2018-08-28T17:50:39.099Z,20.60
2018-08-28T17:53:06.455Z,20.50
2018-08-28T18:02:55.020Z,20.40
2018-08-28T18:05:22.058Z,20.00
2018-08-28T18:07:49.350Z,19.90
2018-08-28T18:10:16.268Z,19.80
2018-08-28T18:12:43.290Z,19.80
2018-08-28T18:15:10.623Z,19.80
2018-08-28T18:17:37.653Z,19.70
2018-08-28T18:20:04.664Z,19.60
2018-08-28T18:22:31.691Z,19.60
2018-08-28T18:24:58.988Z,19.60
2018-08-28T18:27:25.950Z,19.50
2018-08-28T18:29:52.979Z,19.50
2018-08-28T18:32:20.276Z,19.50
2018-08-28T18:34:47.243Z,19.50
2018-08-28T18:37:14.466Z,19.40
2018-08-28T18:39:41.443Z,19.40
2018-08-28T18:42:08.494Z,19.30
2018-08-28T18:44:35.781Z,19.30
2018-08-28T18:47:02.824Z,19.30
2018-08-28T18:49:29.788Z,19.20
2018-08-28T18:51:57.369Z,19.20
2018-08-28T18:56:51.439Z,19.20
2018-08-28T18:59:18.892Z,19.10
2018-08-28T19:01:45.899Z,19.00
2018-08-28T19:04:12.941Z,19.00
2018-08-28T19:09:07.415Z,18.90
2018-08-28T19:11:34.398Z,18.90
2018-08-28T19:14:01.365Z,18.80
2018-08-28T19:16:28.382Z,18.80
2018-08-28T19:18:55.336Z,18.80
2018-08-28T19:21:22.677Z,18.70
2018-08-28T19:23:49.627Z,18.70
2018-08-28T19:26:16.605Z,18.60
2018-08-28T19:28:43.801Z,18.50
2018-08-28T19:31:10.751Z,18.50
2018-08-28T19:33:37.860Z,18.40
2018-08-28T19:38:32.423Z,18.40
2018-08-28T19:40:59.367Z,18.20
2018-08-28T19:43:26.705Z,18.10
2018-08-28T19:45:53.670Z,18.00
2018-08-28T19:48:20.751Z,18.00
2018-08-28T19:50:48.153Z,17.90
2018-08-28T20:00:37.069Z,17.80
2018-08-28T20:03:04.460Z,18.00
2018-08-28T20:05:31.731Z,18.00
2018-08-28T20:07:58.742Z,18.00
2018-08-28T20:10:25.841Z,18.00
2018-08-28T20:12:53.069Z,18.00
2018-08-28T20:15:20.107Z,18.00
2018-08-28T20:17:47.167Z,17.90
2018-08-28T20:20:14.165Z,17.90
2018-08-28T20:22:41.346Z,17.90
2018-08-28T20:25:08.352Z,17.80
2018-08-28T20:27:35.686Z,17.80
2018-08-28T20:30:02.673Z,17.80
2018-08-28T20:32:29.688Z,17.80
2018-08-28T20:34:57.075Z,17.80
2018-08-28T20:37:24.110Z,17.80
2018-08-28T20:39:51.005Z,17.70
2018-08-28T20:42:18.068Z,17.70
2018-08-28T20:44:45.041Z,17.70
2018-08-28T20:47:12.026Z,17.70
2018-08-28T20:49:39.340Z,17.70
2018-08-28T20:52:06.394Z,17.60
2018-08-28T23:04:44.109Z,16.10
2018-08-28T23:07:11.086Z,15.80
2018-08-28T23:09:38.060Z,15.70
2018-08-28T23:12:05.038Z,15.70
2018-08-28T23:14:32.352Z,15.70
2018-08-28T23:16:59.316Z,15.60
2018-08-28T23:19:26.248Z,15.60
2018-08-28T23:21:53.526Z,15.60
2018-08-28T23:24:20.495Z,15.60
2018-08-28T23:26:47.511Z,15.50
2018-08-28T23:29:14.537Z,15.50
2018-08-28T23:31:41.474Z,15.40
2018-08-28T23:34:08.469Z,15.40
2018-08-28T23:36:35.762Z,15.40
2018-08-28T23:39:02.830Z,15.30
2018-08-28T23:41:29.834Z,15.30
2018-08-28T23:43:57.207Z,15.20
2018-08-28T23:46:24.242Z,15.30
2018-08-28T23:48:51.200Z,14.90
2018-08-28T23:51:18.414Z,15.20
2018-08-28T23:53:45.381Z,15.20
2018-08-28T23:56:12.342Z,15.20
2018-08-28T23:58:39.313Z,15.10
